sensor_id;sensor_type;location;lat;lon;timestamp;temperature;humidity
3055;DHT22;1537;52.018;8.542;2023-02-15T00:02:31;3.50;92.50
3055;DHT22;1537;52.018;8.542;2023-02-15T00:05:56;3.50;92.50
3055;DHT22;1537;52.018;8.542;2023-02-15T00:09:20;3.50;92.40
3055;DHT22;1537;52.018;8.542;2023-02-15T00:12:44;3.40;92.40
3055;DHT22;1537;52.018;8.542;2023-02-15T00:16:13;3.30;92.40
3055;DHT22;1537;52.018;8.542;2023-02-15T00:19:37;3.30;92.40
3055;DHT22;1537;52.018;8.542;2023-02-15T00:23:00;3.30;92.30
3055;DHT22;1537;52.018;8.542;2023-02-15T00:26:27;3.20;92.30
3055;DHT22;1537;52.018;8.542;2023-02-15T00:29:50;3.10;92.40
3055;DHT22;1537;52.018;8.542;2023-02-15T00:33:16;3.10;92.50
3055;DHT22;1537;52.018;8.542;2023-02-15T00:36:39;3.10;92.60
3055;DHT22;1537;52.018;8.542;2023-02-15T00:40:05;3.10;92.60
3055;DHT22;1537;52.018;8.542;2023-02-15T00:43:32;3.00;92.60
3055;DHT22;1537;52.018;8.542;2023-02-15T00:46:56;3.00;92.60
3055;DHT22;1537;52.018;8.542;2023-02-15T00:50:22;3.00;92.70
3055;DHT22;1537;52.018;8.542;2023-02-15T00:53:47;3.00;92.60
3055;DHT22;1537;52.018;8.542;2023-02-15T00:57:11;2.90;92.50
3055;DHT22;1537;52.018;8.542;2023-02-15T01:00:36;2.80;92.40
3055;DHT22;1537;52.018;8.542;2023-02-15T01:04:02;2.80;92.50
3055;DHT22;1537;52.018;8.542;2023-02-15T01:07:27;2.80;92.60
3055;DHT22;1537;52.018;8.542;2023-02-15T01:10:50;2.80;92.50
3055;DHT22;1537;52.018;8.542;2023-02-15T01:14:14;2.70;92.60
3055;DHT22;1537;52.018;8.542;2023-02-15T01:17:38;2.60;92.80
3055;DHT22;1537;52.018;8.542;2023-02-15T01:21:09;2.60;92.80
3055;DHT22;1537;52.018;8.542;2023-02-15T01:24:35;2.60;92.70
3055;DHT22;1537;52.018;8.542;2023-02-15T01:28:01;2.60;92.70
3055;DHT22;1537;52.018;8.542;2023-02-15T01:31:25;2.50;92.80
3055;DHT22;1537;52.018;8.542;2023-02-15T01:34:49;2.50;92.90
3055;DHT22;1537;52.018;8.542;2023-02-15T01:38:15;2.40;92.80
3055;DHT22;1537;52.018;8.542;2023-02-15T01:41:41;2.40;92.90
3055;DHT22;1537;52.018;8.542;2023-02-15T01:45:17;2.20;92.90
3055;DHT22;1537;52.018;8.542;2023-02-15T01:48:45;2.20;93.00
3055;DHT22;1537;52.018;8.542;2023-02-15T01:52:11;2.30;93.00
3055;DHT22;1537;52.018;8.542;2023-02-15T01:55:42;2.30;93.00
3055;DHT22;1537;52.018;8.542;2023-02-15T01:59:09;2.30;93.00
3055;DHT22;1537;52.018;8.542;2023-02-15T02:02:37;2.30;93.00
3055;DHT22;1537;52.018;8.542;2023-02-15T02:06:01;2.30;92.90
3055;DHT22;1537;52.018;8.542;2023-02-15T02:09:26;2.30;92.90
3055;DHT22;1537;52.018;8.542;2023-02-15T02:12:54;2.30;92.90
3055;DHT22;1537;52.018;8.542;2023-02-15T02:16:23;2.20;92.90
3055;DHT22;1537;52.018;8.542;2023-02-15T02:20:15;2.20;92.90
3055;DHT22;1537;52.018;8.542;2023-02-15T02:24:03;2.10;92.80
3055;DHT22;1537;52.018;8.542;2023-02-15T02:27:35;2.10;93.20
3055;DHT22;1537;52.018;8.542;2023-02-15T02:31:35;2.10;92.80
3055;DHT22;1537;52.018;8.542;2023-02-15T02:35:10;2.10;92.90
3055;DHT22;1537;52.018;8.542;2023-02-15T02:38:45;2.00;92.80
3055;DHT22;1537;52.018;8.542;2023-02-15T02:42:20;2.00;92.90
3055;DHT22;1537;52.018;8.542;2023-02-15T02:45:53;2.00;92.90
3055;DHT22;1537;52.018;8.542;2023-02-15T02:49:29;2.00;92.80
3055;DHT22;1537;52.018;8.542;2023-02-15T02:52:59;2.00;92.60
3055;DHT22;1537;52.018;8.542;2023-02-15T02:56:29;1.90;92.60
3055;DHT22;1537;52.018;8.542;2023-02-15T02:59:55;1.90;92.60
3055;DHT22;1537;52.018;8.542;2023-02-15T03:03:26;1.90;92.70
3055;DHT22;1537;52.018;8.542;2023-02-15T03:06:53;1.80;92.70
3055;DHT22;1537;52.018;8.542;2023-02-15T03:10:22;1.80;92.70
3055;DHT22;1537;52.018;8.542;2023-02-15T03:13:48;1.70;92.70
3055;DHT22;1537;52.018;8.542;2023-02-15T03:17:16;1.50;92.90
3055;DHT22;1537;52.018;8.542;2023-02-15T03:20:44;1.60;93.00
3055;DHT22;1537;52.018;8.542;2023-02-15T03:24:13;1.60;93.00
3055;DHT22;1537;52.018;8.542;2023-02-15T03:27:43;1.60;92.90
3055;DHT22;1537;52.018;8.542;2023-02-15T03:31:10;1.60;92.80
3055;DHT22;1537;52.018;8.542;2023-02-15T03:34:36;1.50;92.80
3055;DHT22;1537;52.018;8.542;2023-02-15T03:38:01;1.40;92.90
3055;DHT22;1537;52.018;8.542;2023-02-15T03:41:29;1.30;93.00
3055;DHT22;1537;52.018;8.542;2023-02-15T03:44:58;1.20;93.00
3055;DHT22;1537;52.018;8.542;2023-02-15T03:48:27;1.10;93.10
3055;DHT22;1537;52.018;8.542;2023-02-15T03:51:55;1.10;93.40
3055;DHT22;1537;52.018;8.542;2023-02-15T03:55:20;1.20;93.40
3055;DHT22;1537;52.018;8.542;2023-02-15T03:58:43;1.20;93.30
3055;DHT22;1537;52.018;8.542;2023-02-15T04:02:28;1.10;93.20
3055;DHT22;1537;52.018;8.542;2023-02-15T04:05:55;0.90;93.30
3055;DHT22;1537;52.018;8.542;2023-02-15T04:09:21;0.80;93.50
3055;DHT22;1537;52.018;8.542;2023-02-15T04:13:02;0.70;93.70
3055;DHT22;1537;52.018;8.542;2023-02-15T04:16:28;0.70;93.80
3055;DHT22;1537;52.018;8.542;2023-02-15T04:19:54;0.80;93.80
3055;DHT22;1537;52.018;8.542;2023-02-15T04:23:36;0.70;93.90
3055;DHT22;1537;52.018;8.542;2023-02-15T04:27:19;0.80;93.80
3055;DHT22;1537;52.018;8.542;2023-02-15T04:30:46;0.80;93.90
3055;DHT22;1537;52.018;8.542;2023-02-15T04:34:11;0.90;93.90
3055;DHT22;1537;52.018;8.542;2023-02-15T04:37:36;0.90;93.60
3055;DHT22;1537;52.018;8.542;2023-02-15T04:41:02;0.80;93.50
3055;DHT22;1537;52.018;8.542;2023-02-15T04:44:25;0.80;93.50
3055;DHT22;1537;52.018;8.542;2023-02-15T04:47:50;0.70;93.60
3055;DHT22;1537;52.018;8.542;2023-02-15T04:51:17;0.70;93.70
3055;DHT22;1537;52.018;8.542;2023-02-15T04:54:42;0.70;93.70
3055;DHT22;1537;52.018;8.542;2023-02-15T04:58:07;0.70;93.90
3055;DHT22;1537;52.018;8.542;2023-02-15T05:01:33;0.70;93.80
3055;DHT22;1537;52.018;8.542;2023-02-15T05:04:58;0.70;93.80
3055;DHT22;1537;52.018;8.542;2023-02-15T05:08:22;0.70;93.80
3055;DHT22;1537;52.018;8.542;2023-02-15T05:11:47;0.80;93.70
3055;DHT22;1537;52.018;8.542;2023-02-15T05:15:12;0.80;93.70
3055;DHT22;1537;52.018;8.542;2023-02-15T05:18:36;0.70;93.60
3055;DHT22;1537;52.018;8.542;2023-02-15T05:22:00;0.70;93.80
3055;DHT22;1537;52.018;8.542;2023-02-15T05:25:24;0.70;93.70
3055;DHT22;1537;52.018;8.542;2023-02-15T05:29:09;0.70;93.70
3055;DHT22;1537;52.018;8.542;2023-02-15T05:32:33;0.70;93.60
3055;DHT22;1537;52.018;8.542;2023-02-15T05:35:57;0.70;93.70
3055;DHT22;1537;52.018;8.542;2023-02-15T05:39:24;0.60;93.80
3055;DHT22;1537;52.018;8.542;2023-02-15T05:42:48;0.70;93.90
3055;DHT22;1537;52.018;8.542;2023-02-15T05:46:13;0.70;93.80
3055;DHT22;1537;52.018;8.542;2023-02-15T05:49:38;0.70;93.80
3055;DHT22;1537;52.018;8.542;2023-02-15T05:53:02;0.70;93.80
3055;DHT22;1537;52.018;8.542;2023-02-15T05:56:26;0.60;93.70
3055;DHT22;1537;52.018;8.542;2023-02-15T05:59:50;0.60;93.70
3055;DHT22;1537;52.018;8.542;2023-02-15T06:03:19;0.50;93.70
3055;DHT22;1537;52.018;8.542;2023-02-15T06:06:45;0.60;93.80
3055;DHT22;1537;52.018;8.542;2023-02-15T06:10:09;0.50;93.90
3055;DHT22;1537;52.018;8.542;2023-02-15T06:13:34;0.40;94.00
3055;DHT22;1537;52.018;8.542;2023-02-15T06:17:02;0.40;94.10
3055;DHT22;1537;52.018;8.542;2023-02-15T06:20:27;0.40;94.10
3055;DHT22;1537;52.018;8.542;2023-02-15T06:23:51;0.40;94.10
3055;DHT22;1537;52.018;8.542;2023-02-15T06:27:17;0.30;94.20
3055;DHT22;1537;52.018;8.542;2023-02-15T06:30:41;0.40;94.30
3055;DHT22;1537;52.018;8.542;2023-02-15T06:34:05;0.50;94.30
3055;DHT22;1537;52.018;8.542;2023-02-15T06:37:30;0.40;94.30
3055;DHT22;1537;52.018;8.542;2023-02-15T06:40:57;0.50;94.30
3055;DHT22;1537;52.018;8.542;2023-02-15T06:44:21;0.50;94.20
3055;DHT22;1537;52.018;8.542;2023-02-15T06:47:45;0.50;94.30
3055;DHT22;1537;52.018;8.542;2023-02-15T06:51:09;0.60;94.30
3055;DHT22;1537;52.018;8.542;2023-02-15T06:54:37;0.60;94.30
3055;DHT22;1537;52.018;8.542;2023-02-15T06:58:01;0.60;94.40
3055;DHT22;1537;52.018;8.542;2023-02-15T07:01:25;0.60;94.30
3055;DHT22;1537;52.018;8.542;2023-02-15T07:04:50;0.60;94.20
3055;DHT22;1537;52.018;8.542;2023-02-15T07:08:14;0.70;94.30
3055;DHT22;1537;52.018;8.542;2023-02-15T07:11:39;0.80;94.30
3055;DHT22;1537;52.018;8.542;2023-02-15T07:15:21;0.80;94.30
3055;DHT22;1537;52.018;8.542;2023-02-15T07:18:45;0.90;94.20
3055;DHT22;1537;52.018;8.542;2023-02-15T07:22:09;1.00;94.10
3055;DHT22;1537;52.018;8.542;2023-02-15T07:25:32;1.10;94.30
3055;DHT22;1537;52.018;8.542;2023-02-15T07:28:57;1.10;94.10
3055;DHT22;1537;52.018;8.542;2023-02-15T07:32:21;1.10;93.80
3055;DHT22;1537;52.018;8.542;2023-02-15T07:35:48;1.30;93.90
3055;DHT22;1537;52.018;8.542;2023-02-15T07:39:12;1.40;93.90
3055;DHT22;1537;52.018;8.542;2023-02-15T07:42:36;1.40;93.30
3055;DHT22;1537;52.018;8.542;2023-02-15T07:46:02;1.40;93.40
3055;DHT22;1537;52.018;8.542;2023-02-15T07:49:26;1.50;93.60
3055;DHT22;1537;52.018;8.542;2023-02-15T07:52:50;1.50;93.60
3055;DHT22;1537;52.018;8.542;2023-02-15T07:56:14;1.80;93.70
3055;DHT22;1537;52.018;8.542;2023-02-15T07:59:38;3.20;95.50
3055;DHT22;1537;52.018;8.542;2023-02-15T08:03:03;4.80;90.70
3055;DHT22;1537;52.018;8.542;2023-02-15T08:06:39;6.30;83.80
3055;DHT22;1537;52.018;8.542;2023-02-15T08:10:03;7.10;74.20
3055;DHT22;1537;52.018;8.542;2023-02-15T08:13:26;6.90;73.40
3055;DHT22;1537;52.018;8.542;2023-02-15T08:16:51;7.90;70.80
3055;DHT22;1537;52.018;8.542;2023-02-15T08:20:17;8.70;64.30
3055;DHT22;1537;52.018;8.542;2023-02-15T08:23:40;9.40;64.30
3055;DHT22;1537;52.018;8.542;2023-02-15T08:27:05;10.60;58.60
3055;DHT22;1537;52.018;8.542;2023-02-15T08:30:28;11.80;53.70
3055;DHT22;1537;52.018;8.542;2023-02-15T08:33:54;11.40;53.60
3055;DHT22;1537;52.018;8.542;2023-02-15T08:37:19;10.20;55.60
3055;DHT22;1537;52.018;8.542;2023-02-15T08:40:42;10.50;55.80
3055;DHT22;1537;52.018;8.542;2023-02-15T08:44:07;10.40;55.40
3055;DHT22;1537;52.018;8.542;2023-02-15T08:47:31;10.80;55.10
3055;DHT22;1537;52.018;8.542;2023-02-15T08:50:55;12.40;52.80
3055;DHT22;1537;52.018;8.542;2023-02-15T08:54:21;13.20;50.60
3055;DHT22;1537;52.018;8.542;2023-02-15T08:57:44;13.00;50.30
3055;DHT22;1537;52.018;8.542;2023-02-15T09:01:10;14.20;47.60
3055;DHT22;1537;52.018;8.542;2023-02-15T09:04:34;14.50;46.40
3055;DHT22;1537;52.018;8.542;2023-02-15T09:07:57;14.70;45.30
3055;DHT22;1537;52.018;8.542;2023-02-15T09:11:24;14.60;46.70
3055;DHT22;1537;52.018;8.542;2023-02-15T09:14:48;14.80;45.50
3055;DHT22;1537;52.018;8.542;2023-02-15T09:18:11;14.90;45.50
3055;DHT22;1537;52.018;8.542;2023-02-15T09:21:39;14.60;45.50
3055;DHT22;1537;52.018;8.542;2023-02-15T09:25:03;14.70;45.80
3055;DHT22;1537;52.018;8.542;2023-02-15T09:28:27;15.20;44.80
3055;DHT22;1537;52.018;8.542;2023-02-15T09:31:51;13.60;46.80
3055;DHT22;1537;52.018;8.542;2023-02-15T09:35:16;13.80;47.90
3055;DHT22;1537;52.018;8.542;2023-02-15T09:38:41;13.40;48.10
3055;DHT22;1537;52.018;8.542;2023-02-15T09:46:23;15.40;46.40
3055;DHT22;1537;52.018;8.542;2023-02-15T09:49:58;16.70;43.20
3055;DHT22;1537;52.018;8.542;2023-02-15T09:53:47;16.10;43.90
3055;DHT22;1537;52.018;8.542;2023-02-15T09:57:23;16.40;43.20
3055;DHT22;1537;52.018;8.542;2023-02-15T10:00:57;17.00;43.20
3055;DHT22;1537;52.018;8.542;2023-02-15T10:04:39;17.20;41.10
3055;DHT22;1537;52.018;8.542;2023-02-15T10:12:09;15.80;44.50
3055;DHT22;1537;52.018;8.542;2023-02-15T10:15:50;16.40;44.60
3055;DHT22;1537;52.018;8.542;2023-02-15T10:19:19;15.60;44.50
3055;DHT22;1537;52.018;8.542;2023-02-15T10:23:02;15.80;44.80
3055;DHT22;1537;52.018;8.542;2023-02-15T10:26:33;16.20;45.00
3055;DHT22;1537;52.018;8.542;2023-02-15T10:30:08;17.00;43.90
3055;DHT22;1537;52.018;8.542;2023-02-15T10:33:38;16.50;43.00
3055;DHT22;1537;52.018;8.542;2023-02-15T10:37:32;16.00;45.00
3055;DHT22;1537;52.018;8.542;2023-02-15T10:41:14;15.80;45.90
3055;DHT22;1537;52.018;8.542;2023-02-15T10:44:54;16.70;43.90
3055;DHT22;1537;52.018;8.542;2023-02-15T10:48:34;16.20;45.20
3055;DHT22;1537;52.018;8.542;2023-02-15T10:52:10;16.50;44.70
3055;DHT22;1537;52.018;8.542;2023-02-15T10:55:46;16.00;45.30
3055;DHT22;1537;52.018;8.542;2023-02-15T10:59:26;15.00;47.30
3055;DHT22;1537;52.018;8.542;2023-02-15T11:03:05;14.50;48.30
3055;DHT22;1537;52.018;8.542;2023-02-15T11:06:35;14.60;48.60
3055;DHT22;1537;52.018;8.542;2023-02-15T11:10:05;14.30;49.00
3055;DHT22;1537;52.018;8.542;2023-02-15T11:13:34;14.30;49.50
3055;DHT22;1537;52.018;8.542;2023-02-15T11:17:04;14.00;49.40
3055;DHT22;1537;52.018;8.542;2023-02-15T11:20:33;13.70;51.00
3055;DHT22;1537;52.018;8.542;2023-02-15T11:23:59;13.90;52.00
3055;DHT22;1537;52.018;8.542;2023-02-15T11:27:26;13.00;52.90
3055;DHT22;1537;52.018;8.542;2023-02-15T11:30:54;12.50;54.20
3055;DHT22;1537;52.018;8.542;2023-02-15T11:34:25;11.60;57.40
3055;DHT22;1537;52.018;8.542;2023-02-15T11:37:54;11.30;59.70
3055;DHT22;1537;52.018;8.542;2023-02-15T11:41:24;10.70;61.40
3055;DHT22;1537;52.018;8.542;2023-02-15T11:44:56;10.50;64.30
3055;DHT22;1537;52.018;8.542;2023-02-15T11:48:22;10.40;65.30
3055;DHT22;1537;52.018;8.542;2023-02-15T11:51:48;10.30;66.00
3055;DHT22;1537;52.018;8.542;2023-02-15T11:55:16;10.10;66.70
3055;DHT22;1537;52.018;8.542;2023-02-15T11:58:44;10.10;67.40
3055;DHT22;1537;52.018;8.542;2023-02-15T12:02:15;10.20;66.50
3055;DHT22;1537;52.018;8.542;2023-02-15T12:05:45;9.90;69.20
3055;DHT22;1537;52.018;8.542;2023-02-15T12:09:18;9.70;70.20
3055;DHT22;1537;52.018;8.542;2023-02-15T12:12:45;9.70;70.90
3055;DHT22;1537;52.018;8.542;2023-02-15T12:16:11;10.00;69.50
3055;DHT22;1537;52.018;8.542;2023-02-15T12:19:38;9.70;70.90
3055;DHT22;1537;52.018;8.542;2023-02-15T12:23:04;9.80;71.70
3055;DHT22;1537;52.018;8.542;2023-02-15T12:26:32;9.80;70.70
3055;DHT22;1537;52.018;8.542;2023-02-15T12:30:00;10.00;69.80
3055;DHT22;1537;52.018;8.542;2023-02-15T12:33:28;10.20;69.30
3055;DHT22;1537;52.018;8.542;2023-02-15T12:36:56;10.20;69.10
3055;DHT22;1537;52.018;8.542;2023-02-15T12:44:06;10.50;68.60
3055;DHT22;1537;52.018;8.542;2023-02-15T12:47:35;10.50;68.80
3055;DHT22;1537;52.018;8.542;2023-02-15T12:51:08;10.60;68.40
3055;DHT22;1537;52.018;8.542;2023-02-15T12:54:38;10.70;67.90
3055;DHT22;1537;52.018;8.542;2023-02-15T12:58:07;10.60;68.40
3055;DHT22;1537;52.018;8.542;2023-02-15T13:01:33;10.60;69.00
3055;DHT22;1537;52.018;8.542;2023-02-15T13:05:05;10.60;69.20
3055;DHT22;1537;52.018;8.542;2023-02-15T13:08:34;10.60;69.00
3055;DHT22;1537;52.018;8.542;2023-02-15T13:12:10;10.50;69.60
3055;DHT22;1537;52.018;8.542;2023-02-15T13:15:37;10.60;69.60
3055;DHT22;1537;52.018;8.542;2023-02-15T13:19:06;10.60;70.00
3055;DHT22;1537;52.018;8.542;2023-02-15T13:22:35;10.70;69.70
3055;DHT22;1537;52.018;8.542;2023-02-15T13:26:05;10.80;69.80
3055;DHT22;1537;52.018;8.542;2023-02-15T13:29:34;10.80;68.60
3055;DHT22;1537;52.018;8.542;2023-02-15T13:33:02;10.90;69.10
3055;DHT22;1537;52.018;8.542;2023-02-15T13:36:33;11.00;69.00
3055;DHT22;1537;52.018;8.542;2023-02-15T13:40:04;11.10;68.70
3055;DHT22;1537;52.018;8.542;2023-02-15T13:43:39;11.00;68.40
3055;DHT22;1537;52.018;8.542;2023-02-15T13:47:18;11.10;68.40
3055;DHT22;1537;52.018;8.542;2023-02-15T13:51:02;11.30;68.00
3055;DHT22;1537;52.018;8.542;2023-02-15T13:54:42;11.30;67.90
3055;DHT22;1537;52.018;8.542;2023-02-15T13:58:27;11.40;67.90
3055;DHT22;1537;52.018;8.542;2023-02-15T14:01:57;11.50;67.20
3055;DHT22;1537;52.018;8.542;2023-02-15T14:05:28;11.40;67.80
3055;DHT22;1537;52.018;8.542;2023-02-15T14:09:03;11.50;68.40
3055;DHT22;1537;52.018;8.542;2023-02-15T14:16:21;11.40;68.10
3055;DHT22;1537;52.018;8.542;2023-02-15T14:19:53;11.40;68.70
3055;DHT22;1537;52.018;8.542;2023-02-15T14:23:27;11.50;68.20
3055;DHT22;1537;52.018;8.542;2023-02-15T14:26:59;11.40;68.70
3055;DHT22;1537;52.018;8.542;2023-02-15T14:30:30;11.50;68.60
3055;DHT22;1537;52.018;8.542;2023-02-15T14:33:56;11.50;68.40
3055;DHT22;1537;52.018;8.542;2023-02-15T14:37:29;11.60;68.30
3055;DHT22;1537;52.018;8.542;2023-02-15T14:41:01;11.60;68.00
3055;DHT22;1537;52.018;8.542;2023-02-15T14:44:34;11.60;68.00
3055;DHT22;1537;52.018;8.542;2023-02-15T14:48:10;11.60;68.30
3055;DHT22;1537;52.018;8.542;2023-02-15T14:51:55;11.50;68.30
3055;DHT22;1537;52.018;8.542;2023-02-15T14:55:34;11.50;68.00
3055;DHT22;1537;52.018;8.542;2023-02-15T14:59:13;11.50;68.00
3055;DHT22;1537;52.018;8.542;2023-02-15T15:02:44;11.50;68.80
3055;DHT22;1537;52.018;8.542;2023-02-15T15:06:24;11.60;68.20
3055;DHT22;1537;52.018;8.542;2023-02-15T15:09:58;11.50;68.50
3055;DHT22;1537;52.018;8.542;2023-02-15T15:13:37;11.50;68.70
3055;DHT22;1537;52.018;8.542;2023-02-15T15:17:03;11.50;68.90
3055;DHT22;1537;52.018;8.542;2023-02-15T15:20:47;11.50;68.40
3055;DHT22;1537;52.018;8.542;2023-02-15T15:24:46;11.40;69.50
3055;DHT22;1537;52.018;8.542;2023-02-15T15:28:10;11.30;69.70
3055;DHT22;1537;52.018;8.542;2023-02-15T15:31:56;11.20;70.90
3055;DHT22;1537;52.018;8.542;2023-02-15T15:35:27;11.20;70.80
3055;DHT22;1537;52.018;8.542;2023-02-15T15:39:00;11.20;71.00
3055;DHT22;1537;52.018;8.542;2023-02-15T15:42:41;11.10;71.30
3055;DHT22;1537;52.018;8.542;2023-02-15T15:46:17;11.10;71.50
3055;DHT22;1537;52.018;8.542;2023-02-15T15:49:49;11.00;72.60
3055;DHT22;1537;52.018;8.542;2023-02-15T15:53:18;10.90;72.50
3055;DHT22;1537;52.018;8.542;2023-02-15T15:56:45;10.80;72.60
3055;DHT22;1537;52.018;8.542;2023-02-15T16:00:33;10.70;73.00
3055;DHT22;1537;52.018;8.542;2023-02-15T16:03:58;10.70;73.40
3055;DHT22;1537;52.018;8.542;2023-02-15T16:07:26;10.60;73.90
3055;DHT22;1537;52.018;8.542;2023-02-15T16:10:50;10.60;74.00
3055;DHT22;1537;52.018;8.542;2023-02-15T16:14:16;10.50;74.10
3055;DHT22;1537;52.018;8.542;2023-02-15T16:17:41;10.50;74.40
3055;DHT22;1537;52.018;8.542;2023-02-15T16:21:06;10.40;74.40
3055;DHT22;1537;52.018;8.542;2023-02-15T16:28:31;10.10;75.00
3055;DHT22;1537;52.018;8.542;2023-02-15T16:32:03;10.00;75.60
3055;DHT22;1537;52.018;8.542;2023-02-15T16:35:28;9.80;77.50
3055;DHT22;1537;52.018;8.542;2023-02-15T16:39:12;9.80;77.70
3055;DHT22;1537;52.018;8.542;2023-02-15T16:42:41;9.70;77.80
3055;DHT22;1537;52.018;8.542;2023-02-15T16:46:08;9.60;78.50
3055;DHT22;1537;52.018;8.542;2023-02-15T16:49:34;9.40;79.60
3055;DHT22;1537;52.018;8.542;2023-02-15T16:52:58;9.30;80.60
3055;DHT22;1537;52.018;8.542;2023-02-15T16:56:23;9.20;80.90
3055;DHT22;1537;52.018;8.542;2023-02-15T16:59:50;9.10;81.60
3055;DHT22;1537;52.018;8.542;2023-02-15T17:03:23;9.10;82.10
3055;DHT22;1537;52.018;8.542;2023-02-15T17:06:58;8.90;82.90
3055;DHT22;1537;52.018;8.542;2023-02-15T17:10:27;8.80;83.50
3055;DHT22;1537;52.018;8.542;2023-02-15T17:14:11;8.80;83.60
3055;DHT22;1537;52.018;8.542;2023-02-15T17:17:38;8.80;83.80
3055;DHT22;1537;52.018;8.542;2023-02-15T17:21:09;8.70;84.20
3055;DHT22;1537;52.018;8.542;2023-02-15T17:24:38;8.60;84.70
3055;DHT22;1537;52.018;8.542;2023-02-15T17:28:02;8.50;85.00
3055;DHT22;1537;52.018;8.542;2023-02-15T17:31:30;8.40;85.00
3055;DHT22;1537;52.018;8.542;2023-02-15T17:35:04;8.40;85.30
3055;DHT22;1537;52.018;8.542;2023-02-15T17:38:30;8.30;85.50
3055;DHT22;1537;52.018;8.542;2023-02-15T17:41:54;8.20;85.70
3055;DHT22;1537;52.018;8.542;2023-02-15T17:45:18;8.20;85.90
3055;DHT22;1537;52.018;8.542;2023-02-15T17:48:42;8.10;86.20
3055;DHT22;1537;52.018;8.542;2023-02-15T17:52:11;8.00;86.50
3055;DHT22;1537;52.018;8.542;2023-02-15T17:55:35;7.90;86.40
3055;DHT22;1537;52.018;8.542;2023-02-15T17:59:00;7.90;86.50
3055;DHT22;1537;52.018;8.542;2023-02-15T18:02:33;7.80;86.70
3055;DHT22;1537;52.018;8.542;2023-02-15T18:06:15;7.70;86.70
3055;DHT22;1537;52.018;8.542;2023-02-15T18:09:57;7.70;86.80
3055;DHT22;1537;52.018;8.542;2023-02-15T18:13:39;7.60;87.40
3055;DHT22;1537;52.018;8.542;2023-02-15T18:17:03;7.60;87.10
3055;DHT22;1537;52.018;8.542;2023-02-15T18:20:31;7.50;87.20
3055;DHT22;1537;52.018;8.542;2023-02-15T18:23:55;7.50;87.50
3055;DHT22;1537;52.018;8.542;2023-02-15T18:27:20;7.30;87.70
3055;DHT22;1537;52.018;8.542;2023-02-15T18:30:44;7.30;87.80
3055;DHT22;1537;52.018;8.542;2023-02-15T18:34:20;7.20;87.60
3055;DHT22;1537;52.018;8.542;2023-02-15T18:37:44;7.10;87.60
3055;DHT22;1537;52.018;8.542;2023-02-15T18:41:13;7.00;87.80
3055;DHT22;1537;52.018;8.542;2023-02-15T18:44:39;7.00;88.20
3055;DHT22;1537;52.018;8.542;2023-02-15T18:48:05;6.90;88.30
3055;DHT22;1537;52.018;8.542;2023-02-15T18:51:31;6.90;88.20
3055;DHT22;1537;52.018;8.542;2023-02-15T18:55:03;6.80;88.20
3055;DHT22;1537;52.018;8.542;2023-02-15T18:58:29;6.70;88.30
3055;DHT22;1537;52.018;8.542;2023-02-15T19:01:56;6.60;88.40
3055;DHT22;1537;52.018;8.542;2023-02-15T19:05:22;6.60;88.60
3055;DHT22;1537;52.018;8.542;2023-02-15T19:08:48;6.50;89.00
3055;DHT22;1537;52.018;8.542;2023-02-15T19:12:12;6.50;89.30
3055;DHT22;1537;52.018;8.542;2023-02-15T19:15:36;6.40;89.30
3055;DHT22;1537;52.018;8.542;2023-02-15T19:19:01;6.40;89.10
3055;DHT22;1537;52.018;8.542;2023-02-15T19:22:28;6.30;89.30
3055;DHT22;1537;52.018;8.542;2023-02-15T19:25:52;6.30;89.50
3055;DHT22;1537;52.018;8.542;2023-02-15T19:29:23;6.30;89.70
3055;DHT22;1537;52.018;8.542;2023-02-15T19:32:47;6.20;89.70
3055;DHT22;1537;52.018;8.542;2023-02-15T19:36:19;6.10;90.00
3055;DHT22;1537;52.018;8.542;2023-02-15T19:39:45;6.10;90.10
3055;DHT22;1537;52.018;8.542;2023-02-15T19:43:16;6.00;90.00
3055;DHT22;1537;52.018;8.542;2023-02-15T19:46:48;5.90;90.10
3055;DHT22;1537;52.018;8.542;2023-02-15T19:50:23;5.90;90.20
3055;DHT22;1537;52.018;8.542;2023-02-15T19:53:51;5.90;90.30
3055;DHT22;1537;52.018;8.542;2023-02-15T19:57:15;5.90;90.30
3055;DHT22;1537;52.018;8.542;2023-02-15T20:00:42;5.80;90.30
3055;DHT22;1537;52.018;8.542;2023-02-15T20:04:09;5.80;90.30
3055;DHT22;1537;52.018;8.542;2023-02-15T20:07:35;5.80;90.30
3055;DHT22;1537;52.018;8.542;2023-02-15T20:11:04;5.80;90.30
3055;DHT22;1537;52.018;8.542;2023-02-15T20:14:34;5.70;90.40
3055;DHT22;1537;52.018;8.542;2023-02-15T20:18:01;5.70;90.50
3055;DHT22;1537;52.018;8.542;2023-02-15T20:21:37;5.70;90.50
3055;DHT22;1537;52.018;8.542;2023-02-15T20:25:03;5.70;90.40
3055;DHT22;1537;52.018;8.542;2023-02-15T20:28:30;5.60;90.40
3055;DHT22;1537;52.018;8.542;2023-02-15T20:31:54;5.60;90.50
3055;DHT22;1537;52.018;8.542;2023-02-15T20:35:25;5.60;90.40
3055;DHT22;1537;52.018;8.542;2023-02-15T20:38:52;5.50;90.50
3055;DHT22;1537;52.018;8.542;2023-02-15T20:42:19;5.40;90.60
3055;DHT22;1537;52.018;8.542;2023-02-15T20:45:48;5.40;90.70
3055;DHT22;1537;52.018;8.542;2023-02-15T20:49:14;5.30;90.80
3055;DHT22;1537;52.018;8.542;2023-02-15T20:52:41;5.30;90.80
3055;DHT22;1537;52.018;8.542;2023-02-15T20:56:08;5.30;90.80
3055;DHT22;1537;52.018;8.542;2023-02-15T20:59:36;5.20;90.60
3055;DHT22;1537;52.018;8.542;2023-02-15T21:03:11;5.20;90.80
3055;DHT22;1537;52.018;8.542;2023-02-15T21:06:36;5.00;90.70
3055;DHT22;1537;52.018;8.542;2023-02-15T21:10:15;4.90;91.00
3055;DHT22;1537;52.018;8.542;2023-02-15T21:13:41;4.80;91.00
3055;DHT22;1537;52.018;8.542;2023-02-15T21:17:05;4.80;91.30
3055;DHT22;1537;52.018;8.542;2023-02-15T21:20:39;4.80;91.30
3055;DHT22;1537;52.018;8.542;2023-02-15T21:24:12;4.80;91.30
3055;DHT22;1537;52.018;8.542;2023-02-15T21:27:41;4.80;91.50
3055;DHT22;1537;52.018;8.542;2023-02-15T21:31:15;4.80;91.30
3055;DHT22;1537;52.018;8.542;2023-02-15T21:34:41;4.80;91.30
3055;DHT22;1537;52.018;8.542;2023-02-15T21:38:12;4.80;91.40
3055;DHT22;1537;52.018;8.542;2023-02-15T21:41:44;4.80;91.30
3055;DHT22;1537;52.018;8.542;2023-02-15T21:45:26;4.80;91.00
3055;DHT22;1537;52.018;8.542;2023-02-15T21:49:08;4.60;91.10
3055;DHT22;1537;52.018;8.542;2023-02-15T21:52:33;4.50;91.30
3055;DHT22;1537;52.018;8.542;2023-02-15T21:56:00;4.50;91.30
3055;DHT22;1537;52.018;8.542;2023-02-15T21:59:26;4.50;91.40
3055;DHT22;1537;52.018;8.542;2023-02-15T22:02:55;4.50;91.30
3055;DHT22;1537;52.018;8.542;2023-02-15T22:06:23;4.50;91.30
3055;DHT22;1537;52.018;8.542;2023-02-15T22:09:54;4.40;91.30
3055;DHT22;1537;52.018;8.542;2023-02-15T22:13:32;4.30;91.30
3055;DHT22;1537;52.018;8.542;2023-02-15T22:17:03;4.30;91.50
3055;DHT22;1537;52.018;8.542;2023-02-15T22:20:32;4.30;91.60
3055;DHT22;1537;52.018;8.542;2023-02-15T22:24:01;4.30;91.70
3055;DHT22;1537;52.018;8.542;2023-02-15T22:27:27;4.40;91.60
3055;DHT22;1537;52.018;8.542;2023-02-15T22:30:58;4.40;91.60
3055;DHT22;1537;52.018;8.542;2023-02-15T22:34:30;4.40;91.50
3055;DHT22;1537;52.018;8.542;2023-02-15T22:38:03;4.40;91.50
3055;DHT22;1537;52.018;8.542;2023-02-15T22:41:37;4.40;91.40
3055;DHT22;1537;52.018;8.542;2023-02-15T22:45:04;4.40;91.30
3055;DHT22;1537;52.018;8.542;2023-02-15T22:48:32;4.40;91.30
3055;DHT22;1537;52.018;8.542;2023-02-15T22:52:00;4.40;91.30
3055;DHT22;1537;52.018;8.542;2023-02-15T22:55:38;4.40;91.30
3055;DHT22;1537;52.018;8.542;2023-02-15T22:59:12;4.30;91.20
3055;DHT22;1537;52.018;8.542;2023-02-15T23:02:38;4.30;91.30
3055;DHT22;1537;52.018;8.542;2023-02-15T23:06:08;4.20;91.10
3055;DHT22;1537;52.018;8.542;2023-02-15T23:09:32;4.20;91.20
3055;DHT22;1537;52.018;8.542;2023-02-15T23:12:59;4.20;91.20
3055;DHT22;1537;52.018;8.542;2023-02-15T23:16:41;4.10;91.20
3055;DHT22;1537;52.018;8.542;2023-02-15T23:20:12;4.00;91.30